sensor_id;sensor_type;location;lat;lon;timestamp;P1;durP1;ratioP1;P2;durP2;ratioP2
17947;SDS011;9099;47.958;11.366;2022-08-01T00:01:46;1.85;;;1.75;;
17947;SDS011;9099;47.958;11.366;2022-08-01T00:04:13;1.70;;;1.60;;
17947;SDS011;9099;47.958;11.366;2022-08-01T00:06:41;1.70;;;1.60;;
17947;SDS011;9099;47.958;11.366;2022-08-01T00:09:08;1.80;;;1.70;;
17947;SDS011;9099;47.958;11.366;2022-08-01T00:11:35;1.80;;;1.70;;
17947;SDS011;9099;47.958;11.366;2022-08-01T00:14:02;1.98;;;1.88;;
17947;SDS011;9099;47.958;11.366;2022-08-01T00:16:29;2.33;;;1.88;;
17947;SDS011;9099;47.958;11.366;2022-08-01T00:18:56;1.80;;;1.70;;
17947;SDS011;9099;47.958;11.366;2022-08-01T00:21:23;1.67;;;1.58;;
17947;SDS011;9099;47.958;11.366;2022-08-01T00:23:51;2.13;;;1.80;;
17947;SDS011;9099;47.958;11.366;2022-08-01T00:26:18;2.03;;;1.80;;
17947;SDS011;9099;47.958;11.366;2022-08-01T00:28:45;2.10;;;2.00;;
17947;SDS011;9099;47.958;11.366;2022-08-01T00:31:12;1.90;;;1.80;;
17947;SDS011;9099;47.958;11.366;2022-08-01T00:33:39;1.90;;;1.80;;
17947;SDS011;9099;47.958;11.366;2022-08-01T00:36:06;1.70;;;1.60;;
17947;SDS011;9099;47.958;11.366;2022-08-01T00:38:33;2.15;;;1.95;;
17947;SDS011;9099;47.958;11.366;2022-08-01T00:41:01;1.60;;;1.55;;
17947;SDS011;9099;47.958;11.366;2022-08-01T00:43:28;1.90;;;1.80;;
17947;SDS011;9099;47.958;11.366;2022-08-01T00:45:55;1.85;;;1.75;;
17947;SDS011;9099;47.958;11.366;2022-08-01T00:48:22;1.80;;;1.70;;
17947;SDS011;9099;47.958;11.366;2022-08-01T00:50:49;1.73;;;1.70;;
17947;SDS011;9099;47.958;11.366;2022-08-01T00:53:16;1.70;;;1.60;;
17947;SDS011;9099;47.958;11.366;2022-08-01T00:55:43;1.70;;;1.60;;
17947;SDS011;9099;47.958;11.366;2022-08-01T00:58:11;2.33;;;1.80;;
17947;SDS011;9099;47.958;11.366;2022-08-01T01:00:38;2.15;;;1.95;;
17947;SDS011;9099;47.958;11.366;2022-08-01T01:03:05;1.88;;;1.60;;
17947;SDS011;9099;47.958;11.366;2022-08-01T01:05:33;1.85;;;1.75;;
17947;SDS011;9099;47.958;11.366;2022-08-01T01:08:11;1.80;;;1.70;;
17947;SDS011;9099;47.958;11.366;2022-08-01T01:10:46;1.80;;;1.70;;
17947;SDS011;9099;47.958;11.366;2022-08-01T01:13:20;1.95;;;1.65;;
17947;SDS011;9099;47.958;11.366;2022-08-01T01:15:55;1.70;;;1.60;;
17947;SDS011;9099;47.958;11.366;2022-08-01T01:18:25;1.50;;;1.40;;
17947;SDS011;9099;47.958;11.366;2022-08-01T01:20:57;1.30;;;1.30;;
17947;SDS011;9099;47.958;11.366;2022-08-01T01:23:38;1.88;;;1.50;;
17947;SDS011;9099;47.958;11.366;2022-08-01T01:26:23;1.50;;;1.40;;
17947;SDS011;9099;47.958;11.366;2022-08-01T01:29:03;1.70;;;1.60;;
17947;SDS011;9099;47.958;11.366;2022-08-01T01:31:36;2.20;;;1.65;;
17947;SDS011;9099;47.958;11.366;2022-08-01T01:34:08;1.50;;;1.40;;
17947;SDS011;9099;47.958;11.366;2022-08-01T01:36:37;1.60;;;1.50;;
17947;SDS011;9099;47.958;11.366;2022-08-01T01:39:05;1.40;;;1.30;;
17947;SDS011;9099;47.958;11.366;2022-08-01T01:41:33;1.55;;;1.42;;
17947;SDS011;9099;47.958;11.366;2022-08-01T01:44:03;1.40;;;1.30;;
17947;SDS011;9099;47.958;11.366;2022-08-01T01:46:31;1.63;;;1.52;;
17947;SDS011;9099;47.958;11.366;2022-08-01T01:48:58;1.60;;;1.50;;
17947;SDS011;9099;47.958;11.366;2022-08-01T01:51:27;1.80;;;1.70;;
17947;SDS011;9099;47.958;11.366;2022-08-01T01:53:56;1.52;;;1.50;;
17947;SDS011;9099;47.958;11.366;2022-08-01T01:56:24;1.42;;;1.42;;
17947;SDS011;9099;47.958;11.366;2022-08-01T01:58:53;1.70;;;1.60;;
17947;SDS011;9099;47.958;11.366;2022-08-01T02:01:24;1.73;;;1.63;;
17947;SDS011;9099;47.958;11.366;2022-08-01T02:03:54;1.60;;;1.50;;
17947;SDS011;9099;47.958;11.366;2022-08-01T02:06:22;1.58;;;1.48;;
17947;SDS011;9099;47.958;11.366;2022-08-01T02:08:52;1.88;;;1.65;;
17947;SDS011;9099;47.958;11.366;2022-08-01T02:11:20;1.73;;;1.63;;
17947;SDS011;9099;47.958;11.366;2022-08-01T02:13:49;2.58;;;1.80;;
17947;SDS011;9099;47.958;11.366;2022-08-01T02:16:20;1.83;;;1.70;;
17947;SDS011;9099;47.958;11.366;2022-08-01T02:18:51;1.75;;;1.65;;
17947;SDS011;9099;47.958;11.366;2022-08-01T02:21:20;2.00;;;1.77;;
17947;SDS011;9099;47.958;11.366;2022-08-01T02:23:52;1.70;;;1.60;;
17947;SDS011;9099;47.958;11.366;2022-08-01T02:26:21;1.58;;;1.50;;
17947;SDS011;9099;47.958;11.366;2022-08-01T02:28:50;1.70;;;1.60;;
17947;SDS011;9099;47.958;11.366;2022-08-01T02:31:22;1.67;;;1.60;;
17947;SDS011;9099;47.958;11.366;2022-08-01T02:34:02;1.80;;;1.70;;
17947;SDS011;9099;47.958;11.366;2022-08-01T02:36:33;1.45;;;1.38;;
17947;SDS011;9099;47.958;11.366;2022-08-01T02:39:02;1.75;;;1.65;;
17947;SDS011;9099;47.958;11.366;2022-08-01T02:41:30;2.10;;;1.52;;
17947;SDS011;9099;47.958;11.366;2022-08-01T02:44:00;1.65;;;1.55;;
17947;SDS011;9099;47.958;11.366;2022-08-01T02:46:33;1.38;;;1.33;;
17947;SDS011;9099;47.958;11.366;2022-08-01T02:49:02;1.65;;;1.55;;
17947;SDS011;9099;47.958;11.366;2022-08-01T02:51:32;1.85;;;1.75;;
17947;SDS011;9099;47.958;11.366;2022-08-01T02:54:01;2.13;;;1.73;;
17947;SDS011;9099;47.958;11.366;2022-08-01T02:56:31;2.15;;;1.50;;
17947;SDS011;9099;47.958;11.366;2022-08-01T02:59:04;1.60;;;1.50;;
17947;SDS011;9099;47.958;11.366;2022-08-01T03:01:35;1.73;;;1.65;;
17947;SDS011;9099;47.958;11.366;2022-08-01T03:04:04;1.50;;;1.40;;
17947;SDS011;9099;47.958;11.366;2022-08-01T03:06:32;1.83;;;1.63;;
17947;SDS011;9099;47.958;11.366;2022-08-01T03:09:00;1.70;;;1.60;;
17947;SDS011;9099;47.958;11.366;2022-08-01T03:11:28;1.40;;;1.40;;
17947;SDS011;9099;47.958;11.366;2022-08-01T03:13:57;1.67;;;1.42;;
17947;SDS011;9099;47.958;11.366;2022-08-01T03:16:25;1.83;;;1.67;;
17947;SDS011;9099;47.958;11.366;2022-08-01T03:18:54;1.70;;;1.60;;
17947;SDS011;9099;47.958;11.366;2022-08-01T03:21:23;1.67;;;1.58;;
17947;SDS011;9099;47.958;11.366;2022-08-01T03:23:51;1.92;;;1.83;;
17947;SDS011;9099;47.958;11.366;2022-08-01T03:26:22;1.80;;;1.70;;
17947;SDS011;9099;47.958;11.366;2022-08-01T03:28:52;2.47;;;1.80;;
17947;SDS011;9099;47.958;11.366;2022-08-01T03:31:23;2.63;;;1.85;;
17947;SDS011;9099;47.958;11.366;2022-08-01T03:33:51;1.85;;;1.70;;
17947;SDS011;9099;47.958;11.366;2022-08-01T03:36:20;3.35;;;1.60;;
17947;SDS011;9099;47.958;11.366;2022-08-01T03:38:51;1.73;;;1.63;;
17947;SDS011;9099;47.958;11.366;2022-08-01T03:41:21;2.05;;;1.77;;
17947;SDS011;9099;47.958;11.366;2022-08-01T03:43:55;1.80;;;1.70;;
17947;SDS011;9099;47.958;11.366;2022-08-01T03:46:26;1.75;;;1.65;;
17947;SDS011;9099;47.958;11.366;2022-08-01T03:48:58;1.90;;;1.80;;
17947;SDS011;9099;47.958;11.366;2022-08-01T03:51:31;1.75;;;1.65;;
17947;SDS011;9099;47.958;11.366;2022-08-01T03:53:59;1.40;;;1.40;;
17947;SDS011;9099;47.958;11.366;2022-08-01T03:56:27;1.95;;;1.70;;
17947;SDS011;9099;47.958;11.366;2022-08-01T03:58:56;2.15;;;1.90;;
17947;SDS011;9099;47.958;11.366;2022-08-01T04:01:24;1.77;;;1.67;;
17947;SDS011;9099;47.958;11.366;2022-08-01T04:03:52;2.17;;;1.90;;
17947;SDS011;9099;47.958;11.366;2022-08-01T04:06:20;2.10;;;1.90;;
17947;SDS011;9099;47.958;11.366;2022-08-01T04:08:48;2.20;;;2.00;;
17947;SDS011;9099;47.958;11.366;2022-08-01T04:11:21;1.80;;;1.70;;
17947;SDS011;9099;47.958;11.366;2022-08-01T04:13:50;2.03;;;1.92;;
17947;SDS011;9099;47.958;11.366;2022-08-01T04:16:18;2.20;;;2.00;;
17947;SDS011;9099;47.958;11.366;2022-08-01T04:18:45;2.08;;;1.90;;
17947;SDS011;9099;47.958;11.366;2022-08-01T04:21:12;1.80;;;1.70;;
17947;SDS011;9099;47.958;11.366;2022-08-01T04:23:39;1.77;;;1.67;;
17947;SDS011;9099;47.958;11.366;2022-08-01T04:26:10;2.17;;;1.90;;
17947;SDS011;9099;47.958;11.366;2022-08-01T04:28:40;1.90;;;1.80;;
17947;SDS011;9099;47.958;11.366;2022-08-01T04:31:10;2.15;;;1.90;;
17947;SDS011;9099;47.958;11.366;2022-08-01T04:33:38;1.80;;;1.70;;
17947;SDS011;9099;47.958;11.366;2022-08-01T04:36:08;2.17;;;1.80;;
17947;SDS011;9099;47.958;11.366;2022-08-01T04:38:37;1.70;;;1.60;;
17947;SDS011;9099;47.958;11.366;2022-08-01T04:41:06;1.60;;;1.50;;
17947;SDS011;9099;47.958;11.366;2022-08-01T04:43:35;1.88;;;1.77;;
17947;SDS011;9099;47.958;11.366;2022-08-01T04:46:02;1.90;;;1.80;;
17947;SDS011;9099;47.958;11.366;2022-08-01T04:48:30;1.70;;;1.60;;
17947;SDS011;9099;47.958;11.366;2022-08-01T04:50:58;2.83;;;1.65;;
17947;SDS011;9099;47.958;11.366;2022-08-01T04:53:26;1.98;;;1.88;;
17947;SDS011;9099;47.958;11.366;2022-08-01T04:55:53;2.00;;;1.90;;
17947;SDS011;9099;47.958;11.366;2022-08-01T04:58:20;1.85;;;1.70;;
17947;SDS011;9099;47.958;11.366;2022-08-01T05:00:49;1.90;;;1.80;;
17947;SDS011;9099;47.958;11.366;2022-08-01T05:03:15;1.90;;;1.80;;
17947;SDS011;9099;47.958;11.366;2022-08-01T05:05:42;2.58;;;1.90;;
17947;SDS011;9099;47.958;11.366;2022-08-01T05:08:10;2.00;;;1.90;;
17947;SDS011;9099;47.958;11.366;2022-08-01T05:10:36;1.95;;;1.80;;
17947;SDS011;9099;47.958;11.366;2022-08-01T05:13:03;2.00;;;1.90;;
17947;SDS011;9099;47.958;11.366;2022-08-01T05:15:31;2.70;;;1.70;;
17947;SDS011;9099;47.958;11.366;2022-08-01T05:17:59;2.08;;;1.98;;
17947;SDS011;9099;47.958;11.366;2022-08-01T05:20:26;2.10;;;1.60;;
17947;SDS011;9099;47.958;11.366;2022-08-01T05:22:53;2.33;;;1.80;;
17947;SDS011;9099;47.958;11.366;2022-08-01T05:25:20;2.28;;;2.00;;
17947;SDS011;9099;47.958;11.366;2022-08-01T05:27:48;1.85;;;1.75;;
17947;SDS011;9099;47.958;11.366;2022-08-01T05:30:15;3.53;;;2.05;;
17947;SDS011;9099;47.958;11.366;2022-08-01T05:32:42;2.33;;;1.95;;
17947;SDS011;9099;47.958;11.366;2022-08-01T05:35:11;2.70;;;1.98;;
17947;SDS011;9099;47.958;11.366;2022-08-01T05:37:37;2.47;;;1.80;;
17947;SDS011;9099;47.958;11.366;2022-08-01T05:40:05;1.88;;;1.77;;
17947;SDS011;9099;47.958;11.366;2022-08-01T05:42:32;2.25;;;1.80;;
17947;SDS011;9099;47.958;11.366;2022-08-01T05:44:59;2.17;;;2.03;;
17947;SDS011;9099;47.958;11.366;2022-08-01T05:47:26;2.10;;;1.90;;
17947;SDS011;9099;47.958;11.366;2022-08-01T05:49:53;1.80;;;1.70;;
17947;SDS011;9099;47.958;11.366;2022-08-01T05:52:21;1.83;;;1.73;;
17947;SDS011;9099;47.958;11.366;2022-08-01T05:54:48;1.77;;;1.67;;
17947;SDS011;9099;47.958;11.366;2022-08-01T05:57:14;1.90;;;1.80;;
17947;SDS011;9099;47.958;11.366;2022-08-01T05:59:41;2.00;;;1.90;;
17947;SDS011;9099;47.958;11.366;2022-08-01T06:02:08;2.00;;;1.90;;
17947;SDS011;9099;47.958;11.366;2022-08-01T06:04:35;1.70;;;1.60;;
17947;SDS011;9099;47.958;11.366;2022-08-01T06:07:02;2.10;;;2.00;;
17947;SDS011;9099;47.958;11.366;2022-08-01T06:09:30;1.70;;;1.60;;
17947;SDS011;9099;47.958;11.366;2022-08-01T06:11:57;1.88;;;1.75;;
17947;SDS011;9099;47.958;11.366;2022-08-01T06:14:24;2.17;;;2.08;;
17947;SDS011;9099;47.958;11.366;2022-08-01T06:16:51;2.05;;;1.85;;
17947;SDS011;9099;47.958;11.366;2022-08-01T06:19:18;2.20;;;2.00;;
17947;SDS011;9099;47.958;11.366;2022-08-01T06:21:45;2.17;;;2.05;;
17947;SDS011;9099;47.958;11.366;2022-08-01T06:24:11;1.88;;;1.77;;
17947;SDS011;9099;47.958;11.366;2022-08-01T06:26:40;1.88;;;1.77;;
17947;SDS011;9099;47.958;11.366;2022-08-01T06:29:07;2.00;;;1.80;;
17947;SDS011;9099;47.958;11.366;2022-08-01T06:31:34;1.85;;;1.70;;
17947;SDS011;9099;47.958;11.366;2022-08-01T06:34:01;2.25;;;1.92;;
17947;SDS011;9099;47.958;11.366;2022-08-01T06:36:28;2.13;;;2.03;;
17947;SDS011;9099;47.958;11.366;2022-08-01T06:38:54;2.60;;;2.40;;
17947;SDS011;9099;47.958;11.366;2022-08-01T06:41:21;4.43;;;2.30;;
17947;SDS011;9099;47.958;11.366;2022-08-01T06:43:50;2.78;;;1.75;;
17947;SDS011;9099;47.958;11.366;2022-08-01T06:46:16;2.58;;;1.80;;
17947;SDS011;9099;47.958;11.366;2022-08-01T06:48:43;3.20;;;2.00;;
17947;SDS011;9099;47.958;11.366;2022-08-01T06:51:10;1.98;;;1.73;;
17947;SDS011;9099;47.958;11.366;2022-08-01T06:53:40;2.08;;;1.98;;
17947;SDS011;9099;47.958;11.366;2022-08-01T06:56:07;2.55;;;2.35;;
17947;SDS011;9099;47.958;11.366;2022-08-01T06:58:34;2.05;;;1.88;;
17947;SDS011;9099;47.958;11.366;2022-08-01T07:01:03;2.47;;;2.08;;
17947;SDS011;9099;47.958;11.366;2022-08-01T07:03:32;2.28;;;2.08;;
17947;SDS011;9099;47.958;11.366;2022-08-01T07:05:59;11.90;;;3.10;;
17947;SDS011;9099;47.958;11.366;2022-08-01T07:08:26;7.93;;;2.65;;
17947;SDS011;9099;47.958;11.366;2022-08-01T07:10:52;2.00;;;1.90;;
17947;SDS011;9099;47.958;11.366;2022-08-01T07:13:20;2.10;;;2.00;;
17947;SDS011;9099;47.958;11.366;2022-08-01T07:15:50;2.25;;;2.10;;
17947;SDS011;9099;47.958;11.366;2022-08-01T07:18:19;2.20;;;2.00;;
17947;SDS011;9099;47.958;11.366;2022-08-01T07:20:46;2.70;;;2.03;;
17947;SDS011;9099;47.958;11.366;2022-08-01T07:23:13;2.17;;;2.03;;
17947;SDS011;9099;47.958;11.366;2022-08-01T07:25:40;2.30;;;2.17;;
17947;SDS011;9099;47.958;11.366;2022-08-01T07:28:07;2.65;;;2.45;;
17947;SDS011;9099;47.958;11.366;2022-08-01T07:30:34;2.38;;;2.28;;
17947;SDS011;9099;47.958;11.366;2022-08-01T07:33:01;2.08;;;1.98;;
17947;SDS011;9099;47.958;11.366;2022-08-01T07:35:31;3.50;;;2.13;;
17947;SDS011;9099;47.958;11.366;2022-08-01T07:37:58;2.55;;;2.35;;
17947;SDS011;9099;47.958;11.366;2022-08-01T07:40:25;2.90;;;2.10;;
17947;SDS011;9099;47.958;11.366;2022-08-01T07:42:51;3.25;;;2.03;;
17947;SDS011;9099;47.958;11.366;2022-08-01T07:45:18;2.20;;;2.10;;
17947;SDS011;9099;47.958;11.366;2022-08-01T07:47:45;2.30;;;2.17;;
17947;SDS011;9099;47.958;11.366;2022-08-01T07:50:14;2.20;;;2.10;;
17947;SDS011;9099;47.958;11.366;2022-08-01T07:52:43;3.47;;;2.33;;
17947;SDS011;9099;47.958;11.366;2022-08-01T07:55:10;2.30;;;2.20;;
17947;SDS011;9099;47.958;11.366;2022-08-01T07:57:38;2.45;;;2.25;;
17947;SDS011;9099;47.958;11.366;2022-08-01T08:00:05;2.30;;;2.20;;
17947;SDS011;9099;47.958;11.366;2022-08-01T08:02:34;2.08;;;1.98;;
17947;SDS011;9099;47.958;11.366;2022-08-01T08:05:01;2.55;;;2.38;;
17947;SDS011;9099;47.958;11.366;2022-08-01T08:07:28;2.63;;;2.42;;
17947;SDS011;9099;47.958;11.366;2022-08-01T08:09:57;2.90;;;2.70;;
17947;SDS011;9099;47.958;11.366;2022-08-01T08:12:24;2.05;;;1.95;;
17947;SDS011;9099;47.958;11.366;2022-08-01T08:14:51;2.30;;;2.20;;
17947;SDS011;9099;47.958;11.366;2022-08-01T08:17:18;2.50;;;2.40;;
17947;SDS011;9099;47.958;11.366;2022-08-01T08:19:44;2.65;;;2.45;;
17947;SDS011;9099;47.958;11.366;2022-08-01T08:22:11;2.20;;;2.05;;
17947;SDS011;9099;47.958;11.366;2022-08-01T08:24:38;2.50;;;2.40;;
17947;SDS011;9099;47.958;11.366;2022-08-01T08:27:07;2.70;;;2.50;;
17947;SDS011;9099;47.958;11.366;2022-08-01T08:29:33;3.80;;;2.35;;
17947;SDS011;9099;47.958;11.366;2022-08-01T08:32:01;2.72;;;2.53;;
17947;SDS011;9099;47.958;11.366;2022-08-01T08:34:28;2.40;;;2.30;;
17947;SDS011;9099;47.958;11.366;2022-08-01T08:36:56;3.30;;;3.00;;
17947;SDS011;9099;47.958;11.366;2022-08-01T08:39:24;3.50;;;2.30;;
17947;SDS011;9099;47.958;11.366;2022-08-01T08:41:51;2.80;;;2.40;;
17947;SDS011;9099;47.958;11.366;2022-08-01T08:44:19;3.10;;;2.80;;
17947;SDS011;9099;47.958;11.366;2022-08-01T08:46:46;3.33;;;3.03;;
17947;SDS011;9099;47.958;11.366;2022-08-01T08:49:15;2.75;;;2.50;;
17947;SDS011;9099;47.958;11.366;2022-08-01T08:51:47;3.08;;;2.88;;
17947;SDS011;9099;47.958;11.366;2022-08-01T08:54:15;2.80;;;2.60;;
17947;SDS011;9099;47.958;11.366;2022-08-01T08:56:44;3.80;;;3.08;;
17947;SDS011;9099;47.958;11.366;2022-08-01T08:59:13;6.13;;;3.50;;
17947;SDS011;9099;47.958;11.366;2022-08-01T09:01:42;3.90;;;3.25;;
17947;SDS011;9099;47.958;11.366;2022-08-01T09:04:09;3.83;;;3.40;;
17947;SDS011;9099;47.958;11.366;2022-08-01T09:06:37;2.65;;;2.47;;
17947;SDS011;9099;47.958;11.366;2022-08-01T09:09:04;2.30;;;2.15;;
17947;SDS011;9099;47.958;11.366;2022-08-01T09:11:32;2.58;;;2.42;;
17947;SDS011;9099;47.958;11.366;2022-08-01T09:14:04;2.53;;;2.42;;
17947;SDS011;9099;47.958;11.366;2022-08-01T09:16:33;3.22;;;2.90;;
17947;SDS011;9099;47.958;11.366;2022-08-01T09:19:10;2.70;;;2.50;;
17947;SDS011;9099;47.958;11.366;2022-08-01T09:21:38;2.50;;;2.30;;
17947;SDS011;9099;47.958;11.366;2022-08-01T09:24:15;2.50;;;2.30;;
17947;SDS011;9099;47.958;11.366;2022-08-01T09:26:42;2.58;;;2.38;;
17947;SDS011;9099;47.958;11.366;2022-08-01T09:29:17;2.00;;;1.90;;
17947;SDS011;9099;47.958;11.366;2022-08-01T09:31:45;2.53;;;2.33;;
17947;SDS011;9099;47.958;11.366;2022-08-01T09:34:15;2.75;;;2.55;;
17947;SDS011;9099;47.958;11.366;2022-08-01T09:36:50;2.13;;;1.98;;
17947;SDS011;9099;47.958;11.366;2022-08-01T09:39:19;2.25;;;1.80;;
17947;SDS011;9099;47.958;11.366;2022-08-01T09:41:48;2.70;;;2.50;;
17947;SDS011;9099;47.958;11.366;2022-08-01T09:44:16;2.45;;;2.28;;
17947;SDS011;9099;47.958;11.366;2022-08-01T09:46:48;2.38;;;2.25;;
17947;SDS011;9099;47.958;11.366;2022-08-01T09:49:28;2.40;;;2.20;;
17947;SDS011;9099;47.958;11.366;2022-08-01T09:51:56;2.40;;;2.20;;
17947;SDS011;9099;47.958;11.366;2022-08-01T09:54:29;2.30;;;2.20;;
17947;SDS011;9099;47.958;11.366;2022-08-01T09:57:07;1.90;;;1.80;;
17947;SDS011;9099;47.958;11.366;2022-08-01T09:59:36;2.97;;;2.63;;
17947;SDS011;9099;47.958;11.366;2022-08-01T10:02:05;3.97;;;3.30;;
17947;SDS011;9099;47.958;11.366;2022-08-01T10:04:34;2.20;;;2.00;;
17947;SDS011;9099;47.958;11.366;2022-08-01T10:07:05;1.80;;;1.70;;
17947;SDS011;9099;47.958;11.366;2022-08-01T10:09:34;2.25;;;1.70;;
17947;SDS011;9099;47.958;11.366;2022-08-01T10:12:02;3.53;;;1.60;;
17947;SDS011;9099;47.958;11.366;2022-08-01T10:14:31;1.85;;;1.75;;
17947;SDS011;9099;47.958;11.366;2022-08-01T10:16:58;1.60;;;1.50;;
17947;SDS011;9099;47.958;11.366;2022-08-01T10:19:27;1.70;;;1.60;;
17947;SDS011;9099;47.958;11.366;2022-08-01T10:21:56;1.88;;;1.77;;
17947;SDS011;9099;47.958;11.366;2022-08-01T10:24:24;1.73;;;1.63;;
17947;SDS011;9099;47.958;11.366;2022-08-01T10:26:55;1.55;;;1.55;;
17947;SDS011;9099;47.958;11.366;2022-08-01T10:29:27;1.80;;;1.70;;
17947;SDS011;9099;47.958;11.366;2022-08-01T10:31:55;1.90;;;1.80;;
17947;SDS011;9099;47.958;11.366;2022-08-01T10:34:22;1.67;;;1.58;;
17947;SDS011;9099;47.958;11.366;2022-08-01T10:36:50;2.20;;;2.00;;
17947;SDS011;9099;47.958;11.366;2022-08-01T10:39:18;2.40;;;1.85;;
17947;SDS011;9099;47.958;11.366;2022-08-01T10:41:46;1.90;;;1.80;;
17947;SDS011;9099;47.958;11.366;2022-08-01T10:44:13;1.80;;;1.70;;
17947;SDS011;9099;47.958;11.366;2022-08-01T10:46:42;1.65;;;1.55;;
17947;SDS011;9099;47.958;11.366;2022-08-01T10:49:15;1.90;;;1.80;;
17947;SDS011;9099;47.958;11.366;2022-08-01T10:51:45;1.75;;;1.65;;
17947;SDS011;9099;47.958;11.366;2022-08-01T10:54:13;1.92;;;1.80;;
17947;SDS011;9099;47.958;11.366;2022-08-01T10:56:42;1.85;;;1.75;;
17947;SDS011;9099;47.958;11.366;2022-08-01T10:59:14;1.73;;;1.65;;
17947;SDS011;9099;47.958;11.366;2022-08-01T11:01:47;2.10;;;1.67;;
17947;SDS011;9099;47.958;11.366;2022-08-01T11:04:32;1.52;;;1.42;;
17947;SDS011;9099;47.958;11.366;2022-08-01T11:07:02;2.25;;;1.50;;
17947;SDS011;9099;47.958;11.366;2022-08-01T11:09:31;1.98;;;1.70;;
17947;SDS011;9099;47.958;11.366;2022-08-01T11:12:07;1.70;;;1.60;;
17947;SDS011;9099;47.958;11.366;2022-08-01T11:17:49;1.38;;;1.27;;
17947;SDS011;9099;47.958;11.366;2022-08-01T11:20:17;1.35;;;1.25;;
17947;SDS011;9099;47.958;11.366;2022-08-01T11:26:06;1.15;;;1.15;;
17947;SDS011;9099;47.958;11.366;2022-08-01T11:28:39;1.42;;;1.35;;
17947;SDS011;9099;47.958;11.366;2022-08-01T11:33:54;1.38;;;1.10;;
17947;SDS011;9099;47.958;11.366;2022-08-01T11:36:21;1.15;;;1.15;;
17947;SDS011;9099;47.958;11.366;2022-08-01T11:38:48;1.25;;;1.23;;
17947;SDS011;9099;47.958;11.366;2022-08-01T11:41:37;1.33;;;1.20;;
17947;SDS011;9099;47.958;11.366;2022-08-01T11:44:07;1.08;;;1.08;;
17947;SDS011;9099;47.958;11.366;2022-08-01T11:46:47;1.10;;;1.10;;
17947;SDS011;9099;47.958;11.366;2022-08-01T11:49:26;1.75;;;1.27;;
17947;SDS011;9099;47.958;11.366;2022-08-01T11:52:09;1.35;;;1.35;;
17947;SDS011;9099;47.958;11.366;2022-08-01T11:54:38;1.35;;;1.25;;
17947;SDS011;9099;47.958;11.366;2022-08-01T11:57:07;1.40;;;1.30;;
17947;SDS011;9099;47.958;11.366;2022-08-01T11:59:38;1.40;;;1.30;;
17947;SDS011;9099;47.958;11.366;2022-08-01T12:02:14;1.23;;;1.13;;
17947;SDS011;9099;47.958;11.366;2022-08-01T12:04:46;1.27;;;1.20;;
17947;SDS011;9099;47.958;11.366;2022-08-01T12:07:14;1.40;;;1.30;;
17947;SDS011;9099;47.958;11.366;2022-08-01T12:09:42;1.75;;;1.65;;
17947;SDS011;9099;47.958;11.366;2022-08-01T12:12:09;1.70;;;1.60;;
17947;SDS011;9099;47.958;11.366;2022-08-01T12:14:37;1.60;;;1.50;;
17947;SDS011;9099;47.958;11.366;2022-08-01T12:17:04;1.88;;;1.60;;
17947;SDS011;9099;47.958;11.366;2022-08-01T12:19:31;1.35;;;1.35;;
17947;SDS011;9099;47.958;11.366;2022-08-01T12:22:05;1.98;;;1.60;;
17947;SDS011;9099;47.958;11.366;2022-08-01T12:24:36;1.50;;;1.40;;
17947;SDS011;9099;47.958;11.366;2022-08-01T12:27:05;1.50;;;1.40;;
17947;SDS011;9099;47.958;11.366;2022-08-01T12:29:34;1.40;;;1.30;;
17947;SDS011;9099;47.958;11.366;2022-08-01T12:32:05;1.30;;;1.30;;
17947;SDS011;9099;47.958;11.366;2022-08-01T12:34:48;2.40;;;1.30;;
17947;SDS011;9099;47.958;11.366;2022-08-01T12:37:14;1.80;;;1.25;;
17947;SDS011;9099;47.958;11.366;2022-08-01T12:39:43;1.60;;;1.15;;
17947;SDS011;9099;47.958;11.366;2022-08-01T12:42:10;1.10;;;1.00;;
17947;SDS011;9099;47.958;11.366;2022-08-01T12:44:38;0.98;;;0.98;;
17947;SDS011;9099;47.958;11.366;2022-08-01T12:47:07;1.40;;;1.30;;
17947;SDS011;9099;47.958;11.366;2022-08-01T12:49:35;1.40;;;1.30;;
17947;SDS011;9099;47.958;11.366;2022-08-01T12:52:03;1.25;;;1.15;;
17947;SDS011;9099;47.958;11.366;2022-08-01T12:54:30;1.40;;;1.30;;
17947;SDS011;9099;47.958;11.366;2022-08-01T12:57:23;1.50;;;1.40;;
17947;SDS011;9099;47.958;11.366;2022-08-01T12:59:52;1.38;;;1.27;;
17947;SDS011;9099;47.958;11.366;2022-08-01T13:02:20;1.25;;;1.15;;
17947;SDS011;9099;47.958;11.366;2022-08-01T13:04:58;1.30;;;1.10;;
17947;SDS011;9099;47.958;11.366;2022-08-01T13:07:34;2.10;;;1.30;;
17947;SDS011;9099;47.958;11.366;2022-08-01T13:10:05;1.20;;;1.20;;
17947;SDS011;9099;47.958;11.366;2022-08-01T13:12:32;1.10;;;1.05;;
17947;SDS011;9099;47.958;11.366;2022-08-01T13:14:59;1.40;;;1.30;;
17947;SDS011;9099;47.958;11.366;2022-08-01T13:17:45;1.23;;;1.10;;
17947;SDS011;9099;47.958;11.366;2022-08-01T13:20:20;1.13;;;1.13;;
17947;SDS011;9099;47.958;11.366;2022-08-01T13:22:55;3.25;;;1.20;;
17947;SDS011;9099;47.958;11.366;2022-08-01T13:25:45;1.75;;;1.40;;
17947;SDS011;9099;47.958;11.366;2022-08-01T13:28:20;1.25;;;1.15;;
17947;SDS011;9099;47.958;11.366;2022-08-01T13:30:55;1.30;;;1.30;;
17947;SDS011;9099;47.958;11.366;2022-08-01T13:33:26;1.55;;;1.15;;
17947;SDS011;9099;47.958;11.366;2022-08-01T13:36:06;1.17;;;1.10;;
17947;SDS011;9099;47.958;11.366;2022-08-01T13:38:33;1.20;;;1.17;;
17947;SDS011;9099;47.958;11.366;2022-08-01T13:41:17;1.30;;;1.30;;
17947;SDS011;9099;47.958;11.366;2022-08-01T13:43:44;1.70;;;1.60;;
17947;SDS011;9099;47.958;11.366;2022-08-01T13:46:11;1.00;;;1.00;;
17947;SDS011;9099;47.958;11.366;2022-08-01T13:48:39;1.48;;;1.38;;
17947;SDS011;9099;47.958;11.366;2022-08-01T13:51:06;1.30;;;1.17;;
17947;SDS011;9099;47.958;11.366;2022-08-01T13:53:33;1.35;;;1.25;;
17947;SDS011;9099;47.958;11.366;2022-08-01T13:56:00;1.25;;;1.25;;
17947;SDS011;9099;47.958;11.366;2022-08-01T13:58:27;1.48;;;1.20;;
17947;SDS011;9099;47.958;11.366;2022-08-01T14:00:54;1.33;;;1.33;;
17947;SDS011;9099;47.958;11.366;2022-08-01T14:03:21;2.65;;;1.30;;
17947;SDS011;9099;47.958;11.366;2022-08-01T14:05:50;1.17;;;1.17;;
17947;SDS011;9099;47.958;11.366;2022-08-01T14:08:16;1.30;;;1.30;;
17947;SDS011;9099;47.958;11.366;2022-08-01T14:10:43;1.30;;;1.30;;
17947;SDS011;9099;47.958;11.366;2022-08-01T14:13:10;2.25;;;1.30;;
17947;SDS011;9099;47.958;11.366;2022-08-01T14:15:37;1.55;;;1.27;;
17947;SDS011;9099;47.958;11.366;2022-08-01T14:18:04;1.55;;;1.33;;
17947;SDS011;9099;47.958;11.366;2022-08-01T14:20:32;1.38;;;1.25;;
17947;SDS011;9099;47.958;11.366;2022-08-01T14:23:00;1.50;;;1.40;;
17947;SDS011;9099;47.958;11.366;2022-08-01T14:25:27;1.67;;;1.55;;
17947;SDS011;9099;47.958;11.366;2022-08-01T14:27:53;1.30;;;1.25;;
17947;SDS011;9099;47.958;11.366;2022-08-01T14:30:20;1.50;;;1.40;;
17947;SDS011;9099;47.958;11.366;2022-08-01T14:32:47;3.13;;;1.42;;
17947;SDS011;9099;47.958;11.366;2022-08-01T14:35:14;1.58;;;1.33;;
17947;SDS011;9099;47.958;11.366;2022-08-01T14:37:41;1.30;;;1.20;;
17947;SDS011;9099;47.958;11.366;2022-08-01T14:40:09;1.50;;;1.30;;
17947;SDS011;9099;47.958;11.366;2022-08-01T14:42:36;2.03;;;1.20;;
17947;SDS011;9099;47.958;11.366;2022-08-01T14:45:04;4.63;;;1.25;;
17947;SDS011;9099;47.958;11.366;2022-08-01T14:47:33;1.30;;;1.20;;
17947;SDS011;9099;47.958;11.366;2022-08-01T14:50:01;1.58;;;0.95;;
17947;SDS011;9099;47.958;11.366;2022-08-01T14:52:28;0.93;;;0.93;;
17947;SDS011;9099;47.958;11.366;2022-08-01T14:54:55;1.15;;;1.13;;
17947;SDS011;9099;47.958;11.366;2022-08-01T14:57:24;1.10;;;1.10;;
17947;SDS011;9099;47.958;11.366;2022-08-01T14:59:50;1.05;;;0.95;;
17947;SDS011;9099;47.958;11.366;2022-08-01T15:02:17;0.95;;;0.95;;
17947;SDS011;9099;47.958;11.366;2022-08-01T15:04:45;0.90;;;0.82;;
17947;SDS011;9099;47.958;11.366;2022-08-01T15:07:12;1.40;;;1.13;;
17947;SDS011;9099;47.958;11.366;2022-08-01T15:09:39;1.23;;;1.00;;